Terminal Aerodrome Forecast
Issued by NWS

Home | Current Version | Previous Version | Text Only | Print | Product List | Glossary On
Versions: 1 2 3 4 5 6 7 8 9 10 11 12 13 14 15 16 17 18 19 20 21 22 23 24 25 26
000
FTUS42 KMLB 062323
TAFLEE
TAF
KLEE 062323Z 0700/0724 02013KT 2SM BR OVC007
     FM070200 02014G20KT P6SM OVC007
     FM070600 01011KT P6SM OVC004
     FM071400 03013KT P6SM FEW008 OVC025
     FM072000 05011KT P6SM SCT020 BKN030=

USA.gov is the U.S. government's official web portal to all federal, state and local government web resources and services.